sensor_id;sensor_type;location;lat;lon;timestamp;pressure;altitude;pressure_sealevel;temperature;humidity
29045;BME280;16133;49.486;12.176;2023-11-21T00:01:15;96763.25;;;6.24;100.00
29045;BME280;16133;49.486;12.176;2023-11-21T00:03:40;96759.59;;;6.25;100.00
29045;BME280;16133;49.486;12.176;2023-11-21T00:06:06;96760.28;;;6.28;100.00
29045;BME280;16133;49.486;12.176;2023-11-21T00:08:34;96757.63;;;6.28;100.00
29045;BME280;16133;49.486;12.176;2023-11-21T00:11:00;96762.91;;;6.28;100.00
29045;BME280;16133;49.486;12.176;2023-11-21T00:13:26;96758.47;;;6.28;100.00
29045;BME280;16133;49.486;12.176;2023-11-21T00:15:51;96757.63;;;6.28;100.00
29045;BME280;16133;49.486;12.176;2023-11-21T00:18:16;96765.88;;;6.24;100.00
29045;BME280;16133;49.486;12.176;2023-11-21T00:20:42;96761.59;;;6.23;100.00
29045;BME280;16133;49.486;12.176;2023-11-21T00:23:07;96770.31;;;6.24;100.00
29045;BME280;16133;49.486;12.176;2023-11-21T00:25:34;96765.22;;;6.22;100.00
29045;BME280;16133;49.486;12.176;2023-11-21T00:28:00;96772.47;;;6.20;100.00
29045;BME280;16133;49.486;12.176;2023-11-21T00:30:27;96779.38;;;6.21;100.00
29045;BME280;16133;49.486;12.176;2023-11-21T00:32:53;96770.16;;;6.17;100.00
29045;BME280;16133;49.486;12.176;2023-11-21T00:35:18;96763.56;;;6.21;100.00
29045;BME280;16133;49.486;12.176;2023-11-21T00:37:43;96768.84;;;6.21;100.00
29045;BME280;16133;49.486;12.176;2023-11-21T00:40:09;96773.28;;;6.21;100.00
29045;BME280;16133;49.486;12.176;2023-11-21T00:42:35;96766.53;;;6.18;100.00
29045;BME280;16133;49.486;12.176;2023-11-21T00:45:00;96772.47;;;6.20;100.00
29045;BME280;16133;49.486;12.176;2023-11-21T00:47:25;96769.19;;;6.18;100.00
29045;BME280;16133;49.486;12.176;2023-11-21T00:49:51;96763.91;;;6.18;100.00
29045;BME280;16133;49.486;12.176;2023-11-21T00:52:16;96766.53;;;6.18;100.00
29045;BME280;16133;49.486;12.176;2023-11-21T00:54:42;96768.53;;;6.16;100.00
29045;BME280;16133;49.486;12.176;2023-11-21T00:57:07;96767.53;;;6.17;100.00
29045;BME280;16133;49.486;12.176;2023-11-21T00:59:34;96761.47;;;6.17;100.00
29045;BME280;16133;49.486;12.176;2023-11-21T01:02:00;96763.25;;;6.16;100.00
29045;BME280;16133;49.486;12.176;2023-11-21T01:04:26;96764.88;;;6.17;100.00
29045;BME280;16133;49.486;12.176;2023-11-21T01:06:52;96760.63;;;6.16;100.00
29045;BME280;16133;49.486;12.176;2023-11-21T01:09:17;96751.72;;;6.17;100.00
29045;BME280;16133;49.486;12.176;2023-11-21T01:11:43;96762.94;;;6.19;100.00
29045;BME280;16133;49.486;12.176;2023-11-21T01:14:09;96759.63;;;6.17;100.00
29045;BME280;16133;49.486;12.176;2023-11-21T01:16:35;96762.25;;;6.17;100.00
29045;BME280;16133;49.486;12.176;2023-11-21T01:19:01;96762.75;;;6.21;100.00
29045;BME280;16133;49.486;12.176;2023-11-21T01:21:26;96766.38;;;6.20;100.00
29045;BME280;16133;49.486;12.176;2023-11-21T01:23:53;96756.69;;;6.20;100.00
29045;BME280;16133;49.486;12.176;2023-11-21T01:26:18;96752.03;;;6.22;100.00
29045;BME280;16133;49.486;12.176;2023-11-21T01:28:44;96734.78;;;6.12;100.00
29045;BME280;16133;49.486;12.176;2023-11-21T01:31:09;96742.84;;;6.18;100.00
29045;BME280;16133;49.486;12.176;2023-11-21T01:33:35;96754.34;;;6.17;100.00
29045;BME280;16133;49.486;12.176;2023-11-21T01:36:00;96746.44;;;6.17;100.00
29045;BME280;16133;49.486;12.176;2023-11-21T01:38:25;96756.97;;;6.17;100.00
29045;BME280;16133;49.486;12.176;2023-11-21T01:40:51;96753.56;;;6.17;100.00
29045;BME280;16133;49.486;12.176;2023-11-21T01:43:16;96746.44;;;6.17;100.00
29045;BME280;16133;49.486;12.176;2023-11-21T01:45:42;96748.28;;;6.17;100.00
29045;BME280;16133;49.486;12.176;2023-11-21T01:48:08;96750.72;;;6.18;100.00
29045;BME280;16133;49.486;12.176;2023-11-21T01:50:33;96764.88;;;6.17;100.00
29045;BME280;16133;49.486;12.176;2023-11-21T01:52:59;96760.63;;;6.16;100.00
29045;BME280;16133;49.486;12.176;2023-11-21T01:55:25;96758.00;;;6.16;100.00
29045;BME280;16133;49.486;12.176;2023-11-21T01:57:52;96761.47;;;6.17;100.00
29045;BME280;16133;49.486;12.176;2023-11-21T02:00:18;96760.63;;;6.16;100.00
29045;BME280;16133;49.486;12.176;2023-11-21T02:02:48;96760.63;;;6.16;100.00
29045;BME280;16133;49.486;12.176;2023-11-21T02:05:18;96762.25;;;6.17;100.00
29045;BME280;16133;49.486;12.176;2023-11-21T02:07:44;96756.34;;;6.15;100.00
29045;BME280;16133;49.486;12.176;2023-11-21T02:10:11;96756.00;;;6.18;100.00
29045;BME280;16133;49.486;12.176;2023-11-21T02:12:44;96751.72;;;6.17;100.00
29045;BME280;16133;49.486;12.176;2023-11-21T02:15:14;96747.28;;;6.18;100.00
29045;BME280;16133;49.486;12.176;2023-11-21T02:17:41;96751.72;;;6.17;100.00
29045;BME280;16133;49.486;12.176;2023-11-21T02:20:10;96753.38;;;6.18;100.00
29045;BME280;16133;49.486;12.176;2023-11-21T02:22:41;96760.28;;;6.19;100.00
29045;BME280;16133;49.486;12.176;2023-11-21T02:25:08;96750.72;;;6.18;100.00
29045;BME280;16133;49.486;12.176;2023-11-21T02:27:33;96754.34;;;6.17;100.00
29045;BME280;16133;49.486;12.176;2023-11-21T02:29:58;96748.09;;;6.18;100.00
29045;BME280;16133;49.486;12.176;2023-11-21T02:32:26;96745.66;;;6.17;100.00
29045;BME280;16133;49.486;12.176;2023-11-21T02:34:51;96747.28;;;6.18;100.00
29045;BME280;16133;49.486;12.176;2023-11-21T02:37:16;96752.06;;;6.14;100.00
29045;BME280;16133;49.486;12.176;2023-11-21T02:39:42;96752.88;;;6.15;100.00
29045;BME280;16133;49.486;12.176;2023-11-21T02:42:08;96740.38;;;6.17;100.00
29045;BME280;16133;49.486;12.176;2023-11-21T02:44:33;96747.63;;;6.15;100.00
29045;BME280;16133;49.486;12.176;2023-11-21T02:46:59;96736.25;;;6.14;100.00
29045;BME280;16133;49.486;12.176;2023-11-21T02:49:25;96746.78;;;6.14;100.00
29045;BME280;16133;49.486;12.176;2023-11-21T02:51:53;96743.19;;;6.15;100.00
29045;BME280;16133;49.486;12.176;2023-11-21T02:54:20;96741.38;;;6.16;100.00
29045;BME280;16133;49.486;12.176;2023-11-21T02:56:47;96741.19;;;6.17;100.00
29045;BME280;16133;49.486;12.176;2023-11-21T02:59:12;96749.91;;;6.18;100.00
29045;BME280;16133;49.486;12.176;2023-11-21T03:01:38;96744.00;;;6.16;100.00
29045;BME280;16133;49.486;12.176;2023-11-21T03:04:03;96743.50;;;6.20;100.00
29045;BME280;16133;49.486;12.176;2023-11-21T03:06:29;96755.66;;;6.21;100.00
29045;BME280;16133;49.486;12.176;2023-11-21T03:08:54;96753.22;;;6.20;100.00
29045;BME280;16133;49.486;12.176;2023-11-21T03:11:20;96746.94;;;6.21;100.00
29045;BME280;16133;49.486;12.176;2023-11-21T03:13:45;96748.44;;;6.23;100.00
29045;BME280;16133;49.486;12.176;2023-11-21T03:16:11;96745.78;;;6.23;100.00
29045;BME280;16133;49.486;12.176;2023-11-21T03:18:40;96753.84;;;6.22;100.00
29045;BME280;16133;49.486;12.176;2023-11-21T03:21:06;96752.53;;;6.18;100.00
29045;BME280;16133;49.486;12.176;2023-11-21T03:23:34;96748.44;;;6.15;100.00
29045;BME280;16133;49.486;12.176;2023-11-21T03:25:59;96744.16;;;6.14;100.00
29045;BME280;16133;49.486;12.176;2023-11-21T03:28:25;96745.13;;;6.13;100.00
29045;BME280;16133;49.486;12.176;2023-11-21T03:30:52;96749.94;;;6.10;100.00
29045;BME280;16133;49.486;12.176;2023-11-21T03:33:17;96750.44;;;6.05;100.00
29045;BME280;16133;49.486;12.176;2023-11-21T03:35:43;96747.66;;;5.91;100.00
29045;BME280;16133;49.486;12.176;2023-11-21T03:38:10;96759.81;;;5.84;100.00
29045;BME280;16133;49.486;12.176;2023-11-21T03:40:35;96766.72;;;5.76;100.00
29045;BME280;16133;49.486;12.176;2023-11-21T03:43:01;96768.88;;;5.73;100.00
29045;BME280;16133;49.486;12.176;2023-11-21T03:45:26;96768.03;;;5.72;100.00
29045;BME280;16133;49.486;12.176;2023-11-21T03:47:52;96770.88;;;5.71;100.00
29045;BME280;16133;49.486;12.176;2023-11-21T03:50:17;96780.38;;;5.72;100.00
29045;BME280;16133;49.486;12.176;2023-11-21T03:52:43;96772.00;;;5.68;100.00
29045;BME280;16133;49.486;12.176;2023-11-21T03:55:08;96763.47;;;5.66;100.00
29045;BME280;16133;49.486;12.176;2023-11-21T03:57:35;96774.13;;;5.65;100.00
29045;BME280;16133;49.486;12.176;2023-11-21T04:00:01;96763.47;;;5.66;100.00
29045;BME280;16133;49.486;12.176;2023-11-21T04:02:26;96771.84;;;5.70;100.00
29045;BME280;16133;49.486;12.176;2023-11-21T04:04:53;96770.53;;;5.74;100.00
29045;BME280;16133;49.486;12.176;2023-11-21T04:07:18;96763.13;;;5.77;100.00
29045;BME280;16133;49.486;12.176;2023-11-21T04:09:44;96754.06;;;5.80;100.00
29045;BME280;16133;49.486;12.176;2023-11-21T04:12:09;96760.97;;;5.81;100.00
29045;BME280;16133;49.486;12.176;2023-11-21T04:14:35;96757.19;;;5.84;100.00
29045;BME280;16133;49.486;12.176;2023-11-21T04:17:00;96765.59;;;5.87;100.00
29045;BME280;16133;49.486;12.176;2023-11-21T04:19:25;96759.34;;;5.88;100.00
29045;BME280;16133;49.486;12.176;2023-11-21T04:21:51;96757.38;;;5.90;100.00
29045;BME280;16133;49.486;12.176;2023-11-21T04:24:16;96759.00;;;5.91;100.00
29045;BME280;16133;49.486;12.176;2023-11-21T04:26:43;96758.03;;;5.92;100.00
29045;BME280;16133;49.486;12.176;2023-11-21T04:29:08;96753.75;;;5.91;100.00
29045;BME280;16133;49.486;12.176;2023-11-21T04:31:34;96754.91;;;5.89;100.00
29045;BME280;16133;49.486;12.176;2023-11-21T04:33:59;96753.72;;;5.83;100.00
29045;BME280;16133;49.486;12.176;2023-11-21T04:36:24;96763.59;;;5.73;100.00
29045;BME280;16133;49.486;12.176;2023-11-21T04:38:50;96768.53;;;5.60;100.00
29045;BME280;16133;49.486;12.176;2023-11-21T04:41:15;96770.50;;;5.50;100.00
29045;BME280;16133;49.486;12.176;2023-11-21T04:43:40;96775.75;;;5.42;100.00
29045;BME280;16133;49.486;12.176;2023-11-21T04:46:07;96779.06;;;5.44;100.00
29045;BME280;16133;49.486;12.176;2023-11-21T04:48:32;96779.38;;;5.49;100.00
29045;BME280;16133;49.486;12.176;2023-11-21T04:50:58;96784.34;;;5.52;100.00
29045;BME280;16133;49.486;12.176;2023-11-21T04:53:23;96781.38;;;5.55;100.00
29045;BME280;16133;49.486;12.176;2023-11-21T04:55:49;96789.09;;;5.56;100.00
29045;BME280;16133;49.486;12.176;2023-11-21T04:58:14;96785.47;;;5.57;100.00
29045;BME280;16133;49.486;12.176;2023-11-21T05:00:40;96786.94;;;5.60;100.00
29045;BME280;16133;49.486;12.176;2023-11-21T05:03:06;96781.38;;;5.63;100.00
29045;BME280;16133;49.486;12.176;2023-11-21T05:05:32;96772.16;;;5.59;100.00
29045;BME280;16133;49.486;12.176;2023-11-21T05:07:59;96778.09;;;5.69;100.00
29045;BME280;16133;49.486;12.176;2023-11-21T05:10:24;96774.47;;;5.70;100.00
29045;BME280;16133;49.486;12.176;2023-11-21T05:12:50;96772.81;;;5.69;100.00
29045;BME280;16133;49.486;12.176;2023-11-21T05:15:16;96772.81;;;5.69;100.00
29045;BME280;16133;49.486;12.176;2023-11-21T05:17:45;96768.72;;;5.66;100.00
29045;BME280;16133;49.486;12.176;2023-11-21T05:20:11;96774.13;;;5.65;100.00
29045;BME280;16133;49.486;12.176;2023-11-21T05:22:38;96777.44;;;5.59;100.00
29045;BME280;16133;49.486;12.176;2023-11-21T05:25:04;96780.06;;;5.51;100.00
29045;BME280;16133;49.486;12.176;2023-11-21T05:27:30;96777.75;;;5.40;100.00
29045;BME280;16133;49.486;12.176;2023-11-21T05:29:58;96777.06;;;5.29;100.00
29045;BME280;16133;49.486;12.176;2023-11-21T05:32:24;96787.41;;;5.23;100.00
29045;BME280;16133;49.486;12.176;2023-11-21T05:34:50;96793.31;;;5.17;100.00
29045;BME280;16133;49.486;12.176;2023-11-21T05:37:15;96792.84;;;5.13;100.00
29045;BME280;16133;49.486;12.176;2023-11-21T05:39:41;96804.16;;;5.14;100.00
29045;BME280;16133;49.486;12.176;2023-11-21T05:42:06;96798.59;;;5.17;100.00
29045;BME280;16133;49.486;12.176;2023-11-21T05:44:31;96795.44;;;5.21;100.00
29045;BME280;16133;49.486;12.176;2023-11-21T05:46:57;96797.44;;;5.27;100.00
29045;BME280;16133;49.486;12.176;2023-11-21T05:49:24;96790.56;;;5.35;100.00
29045;BME280;16133;49.486;12.176;2023-11-21T05:51:52;96787.13;;;5.42;100.00
29045;BME280;16133;49.486;12.176;2023-11-21T05:54:19;96796.97;;;5.48;100.00
29045;BME280;16133;49.486;12.176;2023-11-21T05:56:44;96795.50;;;5.54;100.00
29045;BME280;16133;49.486;12.176;2023-11-21T05:59:10;96791.41;;;5.59;100.00
29045;BME280;16133;49.486;12.176;2023-11-21T06:01:35;96805.72;;;5.65;100.00
29045;BME280;16133;49.486;12.176;2023-11-21T06:04:04;96802.75;;;5.68;100.00
29045;BME280;16133;49.486;12.176;2023-11-21T06:06:30;96803.25;;;5.71;100.00
29045;BME280;16133;49.486;12.176;2023-11-21T06:08:56;96802.75;;;5.76;100.00
29045;BME280;16133;49.486;12.176;2023-11-21T06:11:21;96799.00;;;5.78;100.00
29045;BME280;16133;49.486;12.176;2023-11-21T06:13:47;96803.09;;;5.81;100.00
29045;BME280;16133;49.486;12.176;2023-11-21T06:16:13;96805.38;;;5.84;100.00
29045;BME280;16133;49.486;12.176;2023-11-21T06:18:41;96806.09;;;5.86;100.00
29045;BME280;16133;49.486;12.176;2023-11-21T06:21:09;96805.75;;;5.89;100.00
29045;BME280;16133;49.486;12.176;2023-11-21T06:23:35;96812.69;;;5.90;100.00
29045;BME280;16133;49.486;12.176;2023-11-21T06:26:00;96810.53;;;5.94;100.00
29045;BME280;16133;49.486;12.176;2023-11-21T06:28:25;96822.53;;;5.96;100.00
29045;BME280;16133;49.486;12.176;2023-11-21T06:30:51;96818.09;;;5.97;100.00
29045;BME280;16133;49.486;12.176;2023-11-21T06:33:16;96827.81;;;5.96;100.00
29045;BME280;16133;49.486;12.176;2023-11-21T06:35:41;96826.81;;;5.97;100.00
29045;BME280;16133;49.486;12.176;2023-11-21T06:38:07;96827.81;;;5.96;100.00
29045;BME280;16133;49.486;12.176;2023-11-21T06:40:34;96831.06;;;5.98;100.00
29045;BME280;16133;49.486;12.176;2023-11-21T06:42:59;96829.94;;;6.01;100.00
29045;BME280;16133;49.486;12.176;2023-11-21T06:45:26;96844.59;;;6.03;100.00
29045;BME280;16133;49.486;12.176;2023-11-21T06:47:51;96841.63;;;6.06;100.00
29045;BME280;16133;49.486;12.176;2023-11-21T06:50:17;96844.91;;;6.08;100.00
29045;BME280;16133;49.486;12.176;2023-11-21T06:52:42;96848.19;;;6.10;100.00
29045;BME280;16133;49.486;12.176;2023-11-21T06:55:08;96849.50;;;6.14;100.00
29045;BME280;16133;49.486;12.176;2023-11-21T06:57:35;96851.81;;;6.17;100.00
29045;BME280;16133;49.486;12.176;2023-11-21T07:00:00;96849.84;;;6.19;100.00
29045;BME280;16133;49.486;12.176;2023-11-21T07:02:25;96850.50;;;6.21;100.00
29045;BME280;16133;49.486;12.176;2023-11-21T07:04:54;96853.47;;;6.27;100.00
29045;BME280;16133;49.486;12.176;2023-11-21T07:07:19;96858.41;;;6.30;100.00
29045;BME280;16133;49.486;12.176;2023-11-21T07:09:45;96852.78;;;6.33;100.00
29045;BME280;16133;49.486;12.176;2023-11-21T07:12:10;96864.31;;;6.40;100.00
29045;BME280;16133;49.486;12.176;2023-11-21T07:14:36;96867.44;;;6.43;100.00
29045;BME280;16133;49.486;12.176;2023-11-21T07:17:02;96863.50;;;6.47;100.00
29045;BME280;16133;49.486;12.176;2023-11-21T07:19:27;96869.25;;;6.51;100.00
29045;BME280;16133;49.486;12.176;2023-11-21T07:21:53;96866.28;;;6.54;100.00
29045;BME280;16133;49.486;12.176;2023-11-21T07:24:18;96873.50;;;6.60;100.00
29045;BME280;16133;49.486;12.176;2023-11-21T07:26:44;96869.06;;;6.60;100.00
29045;BME280;16133;49.486;12.176;2023-11-21T07:29:09;96879.91;;;6.73;100.00
29045;BME280;16133;49.486;12.176;2023-11-21T07:31:36;96885.31;;;6.80;100.00
29045;BME280;16133;49.486;12.176;2023-11-21T07:34:03;96891.56;;;6.87;100.00
29045;BME280;16133;49.486;12.176;2023-11-21T07:36:28;96891.53;;;6.95;100.00
29045;BME280;16133;49.486;12.176;2023-11-21T07:38:54;96895.81;;;7.04;100.00
29045;BME280;16133;49.486;12.176;2023-11-21T07:41:19;96892.13;;;7.13;100.00
29045;BME280;16133;49.486;12.176;2023-11-21T07:43:46;96896.56;;;7.21;100.00
29045;BME280;16133;49.486;12.176;2023-11-21T07:46:12;96909.91;;;7.28;100.00
29045;BME280;16133;49.486;12.176;2023-11-21T07:48:42;96919.59;;;7.35;100.00
29045;BME280;16133;49.486;12.176;2023-11-21T07:51:08;96921.72;;;7.40;100.00
29045;BME280;16133;49.486;12.176;2023-11-21T07:53:35;96930.78;;;7.45;100.00
29045;BME280;16133;49.486;12.176;2023-11-21T07:56:06;96929.44;;;7.49;100.00
29045;BME280;16133;49.486;12.176;2023-11-21T07:58:32;96931.91;;;7.51;100.00
29045;BME280;16133;49.486;12.176;2023-11-21T08:01:00;96939.84;;;7.51;100.00
29045;BME280;16133;49.486;12.176;2023-11-21T08:03:26;96944.09;;;7.52;100.00
29045;BME280;16133;49.486;12.176;2023-11-21T08:05:52;96942.47;;;7.51;100.00
29045;BME280;16133;49.486;12.176;2023-11-21T08:08:18;96949.06;;;7.55;100.00
29045;BME280;16133;49.486;12.176;2023-11-21T08:10:44;96951.50;;;7.56;100.00
29045;BME280;16133;49.486;12.176;2023-11-21T08:13:24;96950.50;;;7.57;100.00
29045;BME280;16133;49.486;12.176;2023-11-21T08:15:50;96949.53;;;7.58;100.00
29045;BME280;16133;49.486;12.176;2023-11-21T08:18:15;96954.63;;;7.60;100.00
29045;BME280;16133;49.486;12.176;2023-11-21T08:20:42;96954.28;;;7.63;100.00
29045;BME280;16133;49.486;12.176;2023-11-21T08:23:08;96953.75;;;7.67;100.00
29045;BME280;16133;49.486;12.176;2023-11-21T08:25:33;96955.06;;;7.72;100.00
29045;BME280;16133;49.486;12.176;2023-11-21T08:28:00;96964.13;;;7.77;100.00
29045;BME280;16133;49.486;12.176;2023-11-21T08:30:25;96962.25;;;7.86;100.00
29045;BME280;16133;49.486;12.176;2023-11-21T08:32:53;96962.88;;;7.96;100.00
29045;BME280;16133;49.486;12.176;2023-11-21T08:35:19;96967.91;;;8.05;100.00
29045;BME280;16133;49.486;12.176;2023-11-21T08:37:44;96973.63;;;8.17;100.00
29045;BME280;16133;49.486;12.176;2023-11-21T08:40:10;96973.22;;;8.28;100.00
29045;BME280;16133;49.486;12.176;2023-11-21T08:42:37;96974.38;;;8.34;100.00
29045;BME280;16133;49.486;12.176;2023-11-21T08:45:03;96971.84;;;8.40;100.00
29045;BME280;16133;49.486;12.176;2023-11-21T08:47:29;96981.88;;;8.45;100.00
29045;BME280;16133;49.486;12.176;2023-11-21T08:49:54;96974.41;;;8.48;100.00
29045;BME280;16133;49.486;12.176;2023-11-21T08:52:19;96973.53;;;8.56;100.00
29045;BME280;16133;49.486;12.176;2023-11-21T08:54:49;96975.50;;;8.62;100.00
29045;BME280;16133;49.486;12.176;2023-11-21T08:57:23;96975.28;;;8.63;100.00
29045;BME280;16133;49.486;12.176;2023-11-21T08:59:49;96984.53;;;8.68;100.00
29045;BME280;16133;49.486;12.176;2023-11-21T09:02:20;96984.00;;;8.72;100.00
29045;BME280;16133;49.486;12.176;2023-11-21T09:04:46;96948.81;;;8.49;100.00
29045;BME280;16133;49.486;12.176;2023-11-21T09:07:11;96991.03;;;8.80;100.00
29045;BME280;16133;49.486;12.176;2023-11-21T09:09:36;96998.59;;;8.83;100.00
29045;BME280;16133;49.486;12.176;2023-11-21T09:12:02;96995.59;;;8.86;100.00
29045;BME280;16133;49.486;12.176;2023-11-21T09:14:27;96996.63;;;8.85;100.00
29045;BME280;16133;49.486;12.176;2023-11-21T09:16:52;97005.53;;;8.84;100.00
29045;BME280;16133;49.486;12.176;2023-11-21T09:19:18;97004.72;;;8.83;100.00
29045;BME280;16133;49.486;12.176;2023-11-21T09:21:43;96998.81;;;8.81;100.00
29045;BME280;16133;49.486;12.176;2023-11-21T09:24:09;97007.06;;;8.78;100.00
29045;BME280;16133;49.486;12.176;2023-11-21T09:26:34;97003.78;;;8.76;100.00
29045;BME280;16133;49.486;12.176;2023-11-21T09:28:59;97010.75;;;8.77;100.00
29045;BME280;16133;49.486;12.176;2023-11-21T09:31:25;97019.31;;;8.79;100.00
29045;BME280;16133;49.486;12.176;2023-11-21T09:33:52;97022.31;;;8.76;100.00
29045;BME280;16133;49.486;12.176;2023-11-21T09:36:18;97030.59;;;8.73;100.00
29045;BME280;16133;49.486;12.176;2023-11-21T09:38:43;97025.66;;;8.70;100.00
29045;BME280;16133;49.486;12.176;2023-11-21T09:41:21;97028.28;;;8.70;100.00
29045;BME280;16133;49.486;12.176;2023-11-21T09:43:54;97028.50;;;8.69;100.00
29045;BME280;16133;49.486;12.176;2023-11-21T09:46:23;97031.50;;;8.66;100.00
29045;BME280;16133;49.486;12.176;2023-11-21T09:48:50;97028.25;;;8.55;100.00
29045;BME280;16133;49.486;12.176;2023-11-21T09:51:19;97030.63;;;8.50;100.00
29045;BME280;16133;49.486;12.176;2023-11-21T09:53:49;97034.41;;;8.48;100.00
29045;BME280;16133;49.486;12.176;2023-11-21T09:56:15;97037.41;;;8.45;100.00
29045;BME280;16133;49.486;12.176;2023-11-21T09:58:44;97035.47;;;8.39;100.00
29045;BME280;16133;49.486;12.176;2023-11-21T10:01:11;97038.81;;;8.33;100.00
29045;BME280;16133;49.486;12.176;2023-11-21T10:03:37;97034.00;;;8.28;100.00
29045;BME280;16133;49.486;12.176;2023-11-21T10:06:04;97037.34;;;8.22;100.00
29045;BME280;16133;49.486;12.176;2023-11-21T10:08:31;97031.13;;;8.15;100.00
29045;BME280;16133;49.486;12.176;2023-11-21T10:10:57;97028.94;;;8.18;100.00
29045;BME280;16133;49.486;12.176;2023-11-21T10:13:24;97030.59;;;8.20;100.00
29045;BME280;16133;49.486;12.176;2023-11-21T10:15:52;97025.97;;;8.22;100.00
29045;BME280;16133;49.486;12.176;2023-11-21T10:18:18;97028.09;;;8.26;100.00
29045;BME280;16133;49.486;12.176;2023-11-21T10:20:44;97026.56;;;8.32;100.00
29045;BME280;16133;49.486;12.176;2023-11-21T10:23:20;97030.34;;;8.37;100.00
29045;BME280;16133;49.486;12.176;2023-11-21T10:25:47;97020.25;;;8.41;100.00
29045;BME280;16133;49.486;12.176;2023-11-21T10:28:13;97021.53;;;8.45;100.00
29045;BME280;16133;49.486;12.176;2023-11-21T10:30:39;97025.31;;;8.50;100.00
29045;BME280;16133;49.486;12.176;2023-11-21T10:33:06;97026.25;;;8.57;100.00
29045;BME280;16133;49.486;12.176;2023-11-21T10:35:48;97029.69;;;8.66;100.00
29045;BME280;16133;49.486;12.176;2023-11-21T10:38:20;97028.13;;;8.72;100.00
29045;BME280;16133;49.486;12.176;2023-11-21T10:40:49;97032.44;;;8.73;100.00
29045;BME280;16133;49.486;12.176;2023-11-21T10:43:15;97034.19;;;8.80;100.00
29045;BME280;16133;49.486;12.176;2023-11-21T10:45:42;97027.19;;;8.87;100.00
29045;BME280;16133;49.486;12.176;2023-11-21T10:48:09;97025.00;;;8.91;100.00
29045;BME280;16133;49.486;12.176;2023-11-21T10:50:40;97033.75;;;8.91;100.00
29045;BME280;16133;49.486;12.176;2023-11-21T10:53:06;97034.75;;;8.90;100.00
29045;BME280;16133;49.486;12.176;2023-11-21T10:55:32;97030.59;;;8.96;100.00
29045;BME280;16133;49.486;12.176;2023-11-21T10:58:00;97033.78;;;9.06;100.00
29045;BME280;16133;49.486;12.176;2023-11-21T11:00:28;97037.81;;;9.17;100.00
29045;BME280;16133;49.486;12.176;2023-11-21T11:02:54;97037.59;;;9.26;100.00
29045;BME280;16133;49.486;12.176;2023-11-21T11:05:24;97032.38;;;9.33;100.00
29045;BME280;16133;49.486;12.176;2023-11-21T11:07:56;97031.00;;;9.37;100.00
29045;BME280;16133;49.486;12.176;2023-11-21T11:10:28;97030.03;;;9.38;100.00
29045;BME280;16133;49.486;12.176;2023-11-21T11:12:55;97031.31;;;9.42;100.00
29045;BME280;16133;49.486;12.176;2023-11-21T11:15:23;97027.00;;;9.41;100.00
29045;BME280;16133;49.486;12.176;2023-11-21T11:17:49;97027.16;;;9.39;100.00
29045;BME280;16133;49.486;12.176;2023-11-21T11:20:16;97017.78;;;9.37;100.00
29045;BME280;16133;49.486;12.176;2023-11-21T11:22:50;97021.09;;;9.39;100.00
29045;BME280;16133;49.486;12.176;2023-11-21T11:28:14;97022.44;;;9.35;100.00
29045;BME280;16133;49.486;12.176;2023-11-21T11:33:53;97014.31;;;9.51;100.00
29045;BME280;16133;49.486;12.176;2023-11-21T11:36:34;97031.75;;;9.60;100.00
29045;BME280;16133;49.486;12.176;2023-11-21T11:39:02;97032.66;;;9.67;100.00
29045;BME280;16133;49.486;12.176;2023-11-21T11:41:31;97028.47;;;9.73;100.00
29045;BME280;16133;49.486;12.176;2023-11-21T11:44:02;97029.19;;;9.81;100.00
29045;BME280;16133;49.486;12.176;2023-11-21T11:46:44;97028.25;;;9.89;100.00
29045;BME280;16133;49.486;12.176;2023-11-21T11:49:27;97030.91;;;9.89;100.00
29045;BME280;16133;49.486;12.176;2023-11-21T11:52:53;97029.84;;;9.83;100.00
29045;BME280;16133;49.486;12.176;2023-11-21T11:55:01;97030.69;;;9.69;100.00
29045;BME280;16133;49.486;12.176;2023-11-21T11:57:30;97029.84;;;9.54;100.00
29045;BME280;16133;49.486;12.176;2023-11-21T12:02:44;97025.53;;;9.24;100.00
29045;BME280;16133;49.486;12.176;2023-11-21T12:05:11;97026.91;;;9.20;100.00
29045;BME280;16133;49.486;12.176;2023-11-21T12:07:46;97024.88;;;9.22;100.00
29045;BME280;16133;49.486;12.176;2023-11-21T12:10:12;97028.06;;;9.32;100.00
29045;BME280;16133;49.486;12.176;2023-11-21T12:12:42;97017.88;;;9.43;100.00
29045;BME280;16133;49.486;12.176;2023-11-21T12:15:09;97035.88;;;9.48;100.00
29045;BME280;16133;49.486;12.176;2023-11-21T12:17:34;97030.19;;;9.51;100.00
29045;BME280;16133;49.486;12.176;2023-11-21T12:20:03;97031.69;;;9.53;100.00
29045;BME280;16133;49.486;12.176;2023-11-21T12:22:30;97034.56;;;9.58;100.00
29045;BME280;16133;49.486;12.176;2023-11-21T12:24:56;97042.53;;;9.58;100.00
29045;BME280;16133;49.486;12.176;2023-11-21T12:27:21;97044.00;;;9.61;100.00
29045;BME280;16133;49.486;12.176;2023-11-21T12:29:47;97048.28;;;9.62;100.00
29045;BME280;16133;49.486;12.176;2023-11-21T12:32:12;97045.53;;;9.70;100.00
29045;BME280;16133;49.486;12.176;2023-11-21T12:34:40;97047.03;;;9.73;100.00
29045;BME280;16133;49.486;12.176;2023-11-21T12:37:06;97045.72;;;9.83;100.00
29045;BME280;16133;49.486;12.176;2023-11-21T12:39:31;97049.94;;;9.92;100.00
29045;BME280;16133;49.486;12.176;2023-11-21T12:41:57;97047.53;;;9.97;100.00
29045;BME280;16133;49.486;12.176;2023-11-21T12:44:22;97051.22;;;9.96;100.00
29045;BME280;16133;49.486;12.176;2023-11-21T12:46:49;97050.28;;;9.89;100.00
29045;BME280;16133;49.486;12.176;2023-11-21T12:49:15;97045.38;;;9.86;100.00
29045;BME280;16133;49.486;12.176;2023-11-21T12:51:45;97042.91;;;9.85;100.00
29045;BME280;16133;49.486;12.176;2023-11-21T12:54:12;97049.84;;;9.86;100.00
29045;BME280;16133;49.486;12.176;2023-11-21T12:56:41;97052.22;;;9.81;100.00